sensor_id;sensor_type;location;lat;lon;timestamp;P1;durP1;ratioP1;P2;durP2;ratioP2
32198;SDS011;73953;42.656;21.156;2023-12-20T00:01:26;142.80;;;86.55;;
32198;SDS011;73953;42.656;21.156;2023-12-20T00:03:53;152.80;;;92.15;;
32198;SDS011;73953;42.656;21.156;2023-12-20T00:06:21;157.40;;;94.47;;
32198;SDS011;73953;42.656;21.156;2023-12-20T00:08:48;174.45;;;105.05;;
32198;SDS011;73953;42.656;21.156;2023-12-20T00:11:15;186.10;;;109.20;;
32198;SDS011;73953;42.656;21.156;2023-12-20T00:13:43;183.70;;;109.93;;
32198;SDS011;73953;42.656;21.156;2023-12-20T00:16:10;186.38;;;105.35;;
32198;SDS011;73953;42.656;21.156;2023-12-20T00:18:37;168.77;;;100.47;;
32198;SDS011;73953;42.656;21.156;2023-12-20T00:21:04;174.43;;;101.20;;
32198;SDS011;73953;42.656;21.156;2023-12-20T00:23:32;178.00;;;99.40;;
32198;SDS011;73953;42.656;21.156;2023-12-20T00:25:59;159.93;;;94.03;;
32198;SDS011;73953;42.656;21.156;2023-12-20T00:28:26;144.23;;;85.10;;
32198;SDS011;73953;42.656;21.156;2023-12-20T00:30:53;139.45;;;79.00;;
32198;SDS011;73953;42.656;21.156;2023-12-20T00:33:20;128.88;;;76.28;;
32198;SDS011;73953;42.656;21.156;2023-12-20T00:35:48;131.48;;;74.80;;
32198;SDS011;73953;42.656;21.156;2023-12-20T00:38:15;148.90;;;81.68;;
32198;SDS011;73953;42.656;21.156;2023-12-20T00:40:42;137.00;;;84.43;;
32198;SDS011;73953;42.656;21.156;2023-12-20T00:43:09;149.82;;;86.30;;
32198;SDS011;73953;42.656;21.156;2023-12-20T00:45:36;142.55;;;85.93;;
32198;SDS011;73953;42.656;21.156;2023-12-20T00:48:03;144.23;;;87.28;;
32198;SDS011;73953;42.656;21.156;2023-12-20T00:50:30;139.20;;;85.45;;
32198;SDS011;73953;42.656;21.156;2023-12-20T00:52:57;140.30;;;82.95;;
32198;SDS011;73953;42.656;21.156;2023-12-20T00:55:24;120.97;;;71.80;;
32198;SDS011;73953;42.656;21.156;2023-12-20T00:57:51;106.68;;;64.43;;
32198;SDS011;73953;42.656;21.156;2023-12-20T01:00:20;115.63;;;64.35;;
32198;SDS011;73953;42.656;21.156;2023-12-20T01:02:47;108.93;;;66.00;;
32198;SDS011;73953;42.656;21.156;2023-12-20T01:05:17;84.82;;;49.85;;
32198;SDS011;73953;42.656;21.156;2023-12-20T01:07:44;91.05;;;51.25;;
32198;SDS011;73953;42.656;21.156;2023-12-20T01:10:12;86.07;;;49.63;;
32198;SDS011;73953;42.656;21.156;2023-12-20T01:12:39;85.47;;;48.90;;
32198;SDS011;73953;42.656;21.156;2023-12-20T01:15:06;81.22;;;48.13;;
32198;SDS011;73953;42.656;21.156;2023-12-20T01:17:33;78.30;;;48.00;;
32198;SDS011;73953;42.656;21.156;2023-12-20T01:20:00;80.85;;;45.97;;
32198;SDS011;73953;42.656;21.156;2023-12-20T01:22:27;75.43;;;43.30;;
32198;SDS011;73953;42.656;21.156;2023-12-20T01:24:54;81.22;;;43.33;;
32198;SDS011;73953;42.656;21.156;2023-12-20T01:27:21;62.88;;;37.95;;
32198;SDS011;73953;42.656;21.156;2023-12-20T01:29:48;69.53;;;37.72;;
32198;SDS011;73953;42.656;21.156;2023-12-20T01:32:15;59.03;;;35.58;;
32198;SDS011;73953;42.656;21.156;2023-12-20T01:34:42;58.85;;;33.92;;
32198;SDS011;73953;42.656;21.156;2023-12-20T01:37:11;60.45;;;32.03;;
32198;SDS011;73953;42.656;21.156;2023-12-20T01:39:38;54.60;;;31.05;;
32198;SDS011;73953;42.656;21.156;2023-12-20T01:42:05;54.75;;;31.83;;
32198;SDS011;73953;42.656;21.156;2023-12-20T01:44:32;67.28;;;36.50;;
32198;SDS011;73953;42.656;21.156;2023-12-20T01:46:59;60.50;;;36.45;;
32198;SDS011;73953;42.656;21.156;2023-12-20T01:49:28;61.20;;;36.28;;
32198;SDS011;73953;42.656;21.156;2023-12-20T01:51:55;63.22;;;36.83;;
32198;SDS011;73953;42.656;21.156;2023-12-20T01:54:22;70.07;;;39.50;;
32198;SDS011;73953;42.656;21.156;2023-12-20T01:56:49;66.50;;;35.83;;
32198;SDS011;73953;42.656;21.156;2023-12-20T01:59:17;55.90;;;33.85;;
32198;SDS011;73953;42.656;21.156;2023-12-20T02:01:45;63.78;;;38.20;;
32198;SDS011;73953;42.656;21.156;2023-12-20T02:04:13;65.53;;;36.28;;
32198;SDS011;73953;42.656;21.156;2023-12-20T02:06:40;73.53;;;41.17;;
32198;SDS011;73953;42.656;21.156;2023-12-20T02:09:08;75.22;;;44.70;;
32198;SDS011;73953;42.656;21.156;2023-12-20T02:11:35;119.15;;;68.38;;
32198;SDS011;73953;42.656;21.156;2023-12-20T02:14:02;122.43;;;74.50;;
32198;SDS011;73953;42.656;21.156;2023-12-20T02:16:29;141.50;;;81.57;;
32198;SDS011;73953;42.656;21.156;2023-12-20T02:18:57;148.10;;;87.20;;
32198;SDS011;73953;42.656;21.156;2023-12-20T02:21:25;153.15;;;91.20;;
32198;SDS011;73953;42.656;21.156;2023-12-20T02:23:51;162.00;;;99.03;;
32198;SDS011;73953;42.656;21.156;2023-12-20T02:26:19;184.88;;;112.57;;
32198;SDS011;73953;42.656;21.156;2023-12-20T02:28:46;207.00;;;123.32;;
32198;SDS011;73953;42.656;21.156;2023-12-20T02:31:13;213.77;;;130.05;;
32198;SDS011;73953;42.656;21.156;2023-12-20T02:33:41;221.27;;;136.15;;
32198;SDS011;73953;42.656;21.156;2023-12-20T02:36:10;223.00;;;135.77;;
32198;SDS011;73953;42.656;21.156;2023-12-20T02:38:37;230.57;;;139.95;;
32198;SDS011;73953;42.656;21.156;2023-12-20T02:41:04;227.65;;;139.05;;
32198;SDS011;73953;42.656;21.156;2023-12-20T02:43:31;230.63;;;138.90;;
32198;SDS011;73953;42.656;21.156;2023-12-20T02:45:58;218.25;;;135.25;;
32198;SDS011;73953;42.656;21.156;2023-12-20T02:48:25;231.27;;;139.60;;
32198;SDS011;73953;42.656;21.156;2023-12-20T02:50:52;233.40;;;143.63;;
32198;SDS011;73953;42.656;21.156;2023-12-20T02:53:19;226.43;;;139.63;;
32198;SDS011;73953;42.656;21.156;2023-12-20T02:55:46;236.02;;;143.35;;
32198;SDS011;73953;42.656;21.156;2023-12-20T02:58:13;225.30;;;139.43;;
32198;SDS011;73953;42.656;21.156;2023-12-20T03:00:40;241.40;;;147.75;;
32198;SDS011;73953;42.656;21.156;2023-12-20T03:03:07;245.95;;;154.10;;
32198;SDS011;73953;42.656;21.156;2023-12-20T03:05:34;235.10;;;148.35;;
32198;SDS011;73953;42.656;21.156;2023-12-20T03:08:01;244.15;;;152.98;;
32198;SDS011;73953;42.656;21.156;2023-12-20T03:10:29;252.82;;;155.85;;
32198;SDS011;73953;42.656;21.156;2023-12-20T03:12:56;245.50;;;152.25;;
32198;SDS011;73953;42.656;21.156;2023-12-20T03:15:23;241.02;;;150.80;;
32198;SDS011;73953;42.656;21.156;2023-12-20T03:17:53;241.57;;;152.45;;
32198;SDS011;73953;42.656;21.156;2023-12-20T03:20:20;240.40;;;146.13;;
32198;SDS011;73953;42.656;21.156;2023-12-20T03:22:47;240.48;;;145.15;;
32198;SDS011;73953;42.656;21.156;2023-12-20T03:25:14;226.85;;;141.43;;
32198;SDS011;73953;42.656;21.156;2023-12-20T03:27:41;217.82;;;130.50;;
32198;SDS011;73953;42.656;21.156;2023-12-20T03:30:10;271.55;;;162.93;;
32198;SDS011;73953;42.656;21.156;2023-12-20T03:32:38;266.15;;;160.23;;
32198;SDS011;73953;42.656;21.156;2023-12-20T03:35:06;269.63;;;159.15;;
32198;SDS011;73953;42.656;21.156;2023-12-20T03:37:33;290.48;;;166.25;;
32198;SDS011;73953;42.656;21.156;2023-12-20T03:40:00;300.40;;;167.05;;
32198;SDS011;73953;42.656;21.156;2023-12-20T03:42:27;291.58;;;170.30;;
32198;SDS011;73953;42.656;21.156;2023-12-20T03:44:54;288.67;;;169.13;;
32198;SDS011;73953;42.656;21.156;2023-12-20T03:47:21;289.50;;;170.60;;
32198;SDS011;73953;42.656;21.156;2023-12-20T03:49:48;281.88;;;169.15;;
32198;SDS011;73953;42.656;21.156;2023-12-20T03:52:15;280.50;;;171.18;;
32198;SDS011;73953;42.656;21.156;2023-12-20T03:54:42;283.02;;;165.70;;
32198;SDS011;73953;42.656;21.156;2023-12-20T03:57:09;273.10;;;164.00;;
32198;SDS011;73953;42.656;21.156;2023-12-20T03:59:37;269.15;;;164.45;;
32198;SDS011;73953;42.656;21.156;2023-12-20T04:02:04;277.70;;;164.10;;
32198;SDS011;73953;42.656;21.156;2023-12-20T04:04:31;269.50;;;162.23;;
32198;SDS011;73953;42.656;21.156;2023-12-20T04:06:58;264.75;;;158.60;;
32198;SDS011;73953;42.656;21.156;2023-12-20T04:09:25;257.98;;;159.38;;
32198;SDS011;73953;42.656;21.156;2023-12-20T04:11:52;264.42;;;159.90;;
32198;SDS011;73953;42.656;21.156;2023-12-20T04:14:19;269.42;;;159.95;;
32198;SDS011;73953;42.656;21.156;2023-12-20T04:16:46;263.67;;;158.65;;
32198;SDS011;73953;42.656;21.156;2023-12-20T04:19:15;268.13;;;160.25;;
32198;SDS011;73953;42.656;21.156;2023-12-20T04:21:42;253.80;;;154.77;;
32198;SDS011;73953;42.656;21.156;2023-12-20T04:24:09;263.95;;;157.82;;
32198;SDS011;73953;42.656;21.156;2023-12-20T04:26:36;252.48;;;156.60;;
32198;SDS011;73953;42.656;21.156;2023-12-20T04:29:06;236.48;;;146.88;;
32198;SDS011;73953;42.656;21.156;2023-12-20T04:31:33;232.77;;;140.60;;
32198;SDS011;73953;42.656;21.156;2023-12-20T04:34:01;207.05;;;126.43;;
32198;SDS011;73953;42.656;21.156;2023-12-20T04:36:28;214.25;;;127.78;;
32198;SDS011;73953;42.656;21.156;2023-12-20T04:38:56;194.88;;;120.43;;
32198;SDS011;73953;42.656;21.156;2023-12-20T04:41:23;185.73;;;113.60;;
32198;SDS011;73953;42.656;21.156;2023-12-20T04:43:50;137.70;;;83.80;;
32198;SDS011;73953;42.656;21.156;2023-12-20T04:46:20;104.63;;;60.15;;
32198;SDS011;73953;42.656;21.156;2023-12-20T04:48:47;91.65;;;57.35;;
32198;SDS011;73953;42.656;21.156;2023-12-20T04:51:14;88.10;;;49.33;;
32198;SDS011;73953;42.656;21.156;2023-12-20T04:53:42;70.00;;;42.75;;
32198;SDS011;73953;42.656;21.156;2023-12-20T04:56:10;75.22;;;45.05;;
32198;SDS011;73953;42.656;21.156;2023-12-20T04:58:37;74.75;;;44.45;;
32198;SDS011;73953;42.656;21.156;2023-12-20T05:01:05;76.53;;;43.50;;
32198;SDS011;73953;42.656;21.156;2023-12-20T05:03:32;68.40;;;41.03;;
32198;SDS011;73953;42.656;21.156;2023-12-20T05:05:59;70.45;;;42.85;;
32198;SDS011;73953;42.656;21.156;2023-12-20T05:08:26;72.03;;;45.55;;
32198;SDS011;73953;42.656;21.156;2023-12-20T05:10:54;69.55;;;42.00;;
32198;SDS011;73953;42.656;21.156;2023-12-20T05:13:21;69.50;;;40.90;;
32198;SDS011;73953;42.656;21.156;2023-12-20T05:15:52;87.82;;;50.50;;
32198;SDS011;73953;42.656;21.156;2023-12-20T05:18:20;114.53;;;63.80;;
32198;SDS011;73953;42.656;21.156;2023-12-20T05:20:47;152.95;;;93.07;;
32198;SDS011;73953;42.656;21.156;2023-12-20T05:23:14;157.13;;;94.07;;
32198;SDS011;73953;42.656;21.156;2023-12-20T05:25:41;215.40;;;131.70;;
32198;SDS011;73953;42.656;21.156;2023-12-20T05:28:08;203.63;;;120.95;;
32198;SDS011;73953;42.656;21.156;2023-12-20T05:30:35;165.23;;;95.57;;
32198;SDS011;73953;42.656;21.156;2023-12-20T05:33:04;144.02;;;85.70;;
32198;SDS011;73953;42.656;21.156;2023-12-20T05:35:31;119.72;;;71.93;;
32198;SDS011;73953;42.656;21.156;2023-12-20T05:37:58;179.88;;;108.80;;
32198;SDS011;73953;42.656;21.156;2023-12-20T05:40:25;191.13;;;116.60;;
32198;SDS011;73953;42.656;21.156;2023-12-20T05:42:52;199.05;;;123.97;;
32198;SDS011;73953;42.656;21.156;2023-12-20T05:45:19;185.77;;;115.88;;
32198;SDS011;73953;42.656;21.156;2023-12-20T05:47:46;191.13;;;122.88;;
32198;SDS011;73953;42.656;21.156;2023-12-20T05:50:13;192.02;;;124.20;;
32198;SDS011;73953;42.656;21.156;2023-12-20T05:52:40;184.70;;;117.97;;
32198;SDS011;73953;42.656;21.156;2023-12-20T05:55:08;189.98;;;115.65;;
32198;SDS011;73953;42.656;21.156;2023-12-20T05:57:35;175.65;;;113.93;;
32198;SDS011;73953;42.656;21.156;2023-12-20T06:00:02;179.32;;;113.13;;
32198;SDS011;73953;42.656;21.156;2023-12-20T06:02:29;183.13;;;114.00;;
32198;SDS011;73953;42.656;21.156;2023-12-20T06:04:56;176.27;;;113.57;;
32198;SDS011;73953;42.656;21.156;2023-12-20T06:07:23;180.77;;;114.43;;
32198;SDS011;73953;42.656;21.156;2023-12-20T06:09:51;191.35;;;117.47;;
32198;SDS011;73953;42.656;21.156;2023-12-20T06:12:18;174.52;;;112.70;;
32198;SDS011;73953;42.656;21.156;2023-12-20T06:14:45;176.15;;;112.90;;
32198;SDS011;73953;42.656;21.156;2023-12-20T06:17:12;173.80;;;110.90;;
32198;SDS011;73953;42.656;21.156;2023-12-20T06:19:39;166.43;;;106.45;;
32198;SDS011;73953;42.656;21.156;2023-12-20T06:22:07;170.38;;;111.55;;
32198;SDS011;73953;42.656;21.156;2023-12-20T06:24:34;171.88;;;109.30;;
32198;SDS011;73953;42.656;21.156;2023-12-20T06:27:01;173.48;;;113.57;;
32198;SDS011;73953;42.656;21.156;2023-12-20T06:29:28;169.77;;;108.50;;
32198;SDS011;73953;42.656;21.156;2023-12-20T06:31:55;173.98;;;111.38;;
32198;SDS011;73953;42.656;21.156;2023-12-20T06:34:23;174.27;;;112.00;;
32198;SDS011;73953;42.656;21.156;2023-12-20T06:36:50;176.60;;;112.20;;
32198;SDS011;73953;42.656;21.156;2023-12-20T06:39:17;166.00;;;108.68;;
32198;SDS011;73953;42.656;21.156;2023-12-20T06:41:44;174.35;;;108.05;;
32198;SDS011;73953;42.656;21.156;2023-12-20T06:44:11;177.00;;;108.95;;
32198;SDS011;73953;42.656;21.156;2023-12-20T06:46:38;177.23;;;110.43;;
32198;SDS011;73953;42.656;21.156;2023-12-20T06:49:05;182.48;;;115.38;;
32198;SDS011;73953;42.656;21.156;2023-12-20T06:51:32;193.40;;;121.35;;
32198;SDS011;73953;42.656;21.156;2023-12-20T06:54:00;181.75;;;115.15;;
32198;SDS011;73953;42.656;21.156;2023-12-20T06:56:29;188.48;;;117.80;;
32198;SDS011;73953;42.656;21.156;2023-12-20T06:58:56;192.45;;;119.70;;
32198;SDS011;73953;42.656;21.156;2023-12-20T07:01:23;203.35;;;120.32;;
32198;SDS011;73953;42.656;21.156;2023-12-20T07:03:50;175.38;;;113.07;;
32198;SDS011;73953;42.656;21.156;2023-12-20T07:06:17;171.30;;;110.93;;
32198;SDS011;73953;42.656;21.156;2023-12-20T07:08:44;168.93;;;105.82;;
32198;SDS011;73953;42.656;21.156;2023-12-20T07:11:11;163.77;;;106.05;;
32198;SDS011;73953;42.656;21.156;2023-12-20T07:13:38;153.90;;;101.47;;
32198;SDS011;73953;42.656;21.156;2023-12-20T07:16:05;150.48;;;98.43;;
32198;SDS011;73953;42.656;21.156;2023-12-20T07:18:33;150.10;;;96.85;;
32198;SDS011;73953;42.656;21.156;2023-12-20T07:21:00;159.70;;;96.78;;
32198;SDS011;73953;42.656;21.156;2023-12-20T07:23:27;153.82;;;97.15;;
32198;SDS011;73953;42.656;21.156;2023-12-20T07:25:54;164.98;;;100.32;;
32198;SDS011;73953;42.656;21.156;2023-12-20T07:28:21;164.63;;;103.22;;
32198;SDS011;73953;42.656;21.156;2023-12-20T07:30:48;157.27;;;101.55;;
32198;SDS011;73953;42.656;21.156;2023-12-20T07:33:15;159.32;;;103.25;;
32198;SDS011;73953;42.656;21.156;2023-12-20T07:35:42;156.85;;;96.28;;
32198;SDS011;73953;42.656;21.156;2023-12-20T07:38:10;152.57;;;94.50;;
32198;SDS011;73953;42.656;21.156;2023-12-20T07:40:37;147.98;;;93.28;;
32198;SDS011;73953;42.656;21.156;2023-12-20T07:43:04;137.68;;;84.43;;
32198;SDS011;73953;42.656;21.156;2023-12-20T07:45:32;158.13;;;94.47;;
32198;SDS011;73953;42.656;21.156;2023-12-20T07:47:59;151.95;;;94.20;;
32198;SDS011;73953;42.656;21.156;2023-12-20T07:50:27;145.20;;;92.60;;
32198;SDS011;73953;42.656;21.156;2023-12-20T07:52:54;134.93;;;90.13;;
32198;SDS011;73953;42.656;21.156;2023-12-20T07:55:22;145.43;;;89.18;;
32198;SDS011;73953;42.656;21.156;2023-12-20T07:57:50;137.98;;;90.82;;
32198;SDS011;73953;42.656;21.156;2023-12-20T08:00:17;135.98;;;89.50;;
32198;SDS011;73953;42.656;21.156;2023-12-20T08:02:44;148.48;;;94.38;;
32198;SDS011;73953;42.656;21.156;2023-12-20T08:05:11;142.02;;;93.22;;
32198;SDS011;73953;42.656;21.156;2023-12-20T08:07:38;149.25;;;95.90;;
32198;SDS011;73953;42.656;21.156;2023-12-20T08:10:05;147.35;;;96.25;;
32198;SDS011;73953;42.656;21.156;2023-12-20T08:12:32;158.07;;;98.60;;
32198;SDS011;73953;42.656;21.156;2023-12-20T08:15:01;163.43;;;101.78;;
32198;SDS011;73953;42.656;21.156;2023-12-20T08:17:28;182.10;;;110.75;;
32198;SDS011;73953;42.656;21.156;2023-12-20T08:19:55;180.23;;;111.40;;
32198;SDS011;73953;42.656;21.156;2023-12-20T08:22:23;189.02;;;112.57;;
32198;SDS011;73953;42.656;21.156;2023-12-20T08:24:51;173.52;;;105.18;;
32198;SDS011;73953;42.656;21.156;2023-12-20T08:27:18;185.75;;;110.32;;
32198;SDS011;73953;42.656;21.156;2023-12-20T08:29:45;170.07;;;107.13;;
32198;SDS011;73953;42.656;21.156;2023-12-20T08:32:13;262.02;;;131.60;;
32198;SDS011;73953;42.656;21.156;2023-12-20T08:34:41;168.07;;;105.07;;
32198;SDS011;73953;42.656;21.156;2023-12-20T08:37:08;174.43;;;108.85;;
32198;SDS011;73953;42.656;21.156;2023-12-20T08:39:35;200.55;;;115.40;;
32198;SDS011;73953;42.656;21.156;2023-12-20T08:42:02;215.15;;;126.28;;
32198;SDS011;73953;42.656;21.156;2023-12-20T08:44:29;200.40;;;122.05;;
32198;SDS011;73953;42.656;21.156;2023-12-20T08:46:56;180.85;;;112.72;;
32198;SDS011;73953;42.656;21.156;2023-12-20T08:49:24;189.85;;;112.38;;
32198;SDS011;73953;42.656;21.156;2023-12-20T08:51:52;195.07;;;115.80;;
32198;SDS011;73953;42.656;21.156;2023-12-20T08:54:22;210.65;;;118.82;;
32198;SDS011;73953;42.656;21.156;2023-12-20T08:56:49;222.43;;;125.57;;
32198;SDS011;73953;42.656;21.156;2023-12-20T08:59:16;192.38;;;113.10;;
32198;SDS011;73953;42.656;21.156;2023-12-20T09:01:43;212.05;;;125.65;;
32198;SDS011;73953;42.656;21.156;2023-12-20T09:04:10;200.38;;;120.50;;
32198;SDS011;73953;42.656;21.156;2023-12-20T09:06:38;184.60;;;111.03;;
32198;SDS011;73953;42.656;21.156;2023-12-20T09:09:06;177.60;;;109.22;;
32198;SDS011;73953;42.656;21.156;2023-12-20T09:11:35;164.75;;;101.63;;
32198;SDS011;73953;42.656;21.156;2023-12-20T09:14:02;177.48;;;105.65;;
32198;SDS011;73953;42.656;21.156;2023-12-20T09:16:30;128.20;;;77.72;;
32198;SDS011;73953;42.656;21.156;2023-12-20T09:18:58;236.40;;;126.60;;
32198;SDS011;73953;42.656;21.156;2023-12-20T09:21:26;126.35;;;75.30;;
32198;SDS011;73953;42.656;21.156;2023-12-20T09:23:53;139.93;;;83.03;;
32198;SDS011;73953;42.656;21.156;2023-12-20T09:26:23;127.78;;;79.30;;
32198;SDS011;73953;42.656;21.156;2023-12-20T09:28:50;117.95;;;70.18;;
32198;SDS011;73953;42.656;21.156;2023-12-20T09:31:17;118.85;;;70.72;;
32198;SDS011;73953;42.656;21.156;2023-12-20T09:33:44;146.75;;;83.82;;
32198;SDS011;73953;42.656;21.156;2023-12-20T09:36:11;127.00;;;74.35;;
32198;SDS011;73953;42.656;21.156;2023-12-20T09:38:39;111.80;;;62.45;;
32198;SDS011;73953;42.656;21.156;2023-12-20T09:41:06;97.82;;;60.95;;
32198;SDS011;73953;42.656;21.156;2023-12-20T09:43:34;192.73;;;96.68;;
32198;SDS011;73953;42.656;21.156;2023-12-20T09:46:02;171.13;;;90.03;;
32198;SDS011;73953;42.656;21.156;2023-12-20T09:48:31;97.40;;;59.75;;
32198;SDS011;73953;42.656;21.156;2023-12-20T09:50:59;122.20;;;75.30;;
32198;SDS011;73953;42.656;21.156;2023-12-20T09:53:26;114.95;;;66.22;;
32198;SDS011;73953;42.656;21.156;2023-12-20T09:56:01;163.68;;;89.30;;
32198;SDS011;73953;42.656;21.156;2023-12-20T09:58:29;102.47;;;61.85;;
32198;SDS011;73953;42.656;21.156;2023-12-20T10:00:57;121.72;;;64.93;;
32198;SDS011;73953;42.656;21.156;2023-12-20T10:03:25;144.68;;;83.68;;
32198;SDS011;73953;42.656;21.156;2023-12-20T10:05:56;158.75;;;89.90;;
32198;SDS011;73953;42.656;21.156;2023-12-20T10:08:24;124.63;;;72.65;;
32198;SDS011;73953;42.656;21.156;2023-12-20T10:10:51;128.05;;;73.03;;
32198;SDS011;73953;42.656;21.156;2023-12-20T10:13:19;127.38;;;74.70;;
32198;SDS011;73953;42.656;21.156;2023-12-20T10:15:46;104.60;;;64.22;;
32198;SDS011;73953;42.656;21.156;2023-12-20T10:18:13;113.30;;;65.78;;
32198;SDS011;73953;42.656;21.156;2023-12-20T10:20:41;102.78;;;63.33;;
32198;SDS011;73953;42.656;21.156;2023-12-20T10:23:10;103.88;;;61.63;;
32198;SDS011;73953;42.656;21.156;2023-12-20T10:25:39;109.93;;;63.85;;
32198;SDS011;73953;42.656;21.156;2023-12-20T10:28:13;166.80;;;91.38;;
32198;SDS011;73953;42.656;21.156;2023-12-20T10:30:41;207.43;;;112.65;;
32198;SDS011;73953;42.656;21.156;2023-12-20T10:33:09;103.10;;;59.00;;
32198;SDS011;73953;42.656;21.156;2023-12-20T10:35:39;117.32;;;66.13;;
32198;SDS011;73953;42.656;21.156;2023-12-20T10:38:11;128.20;;;72.20;;
32198;SDS011;73953;42.656;21.156;2023-12-20T10:40:41;152.60;;;80.93;;
32198;SDS011;73953;42.656;21.156;2023-12-20T10:43:08;102.22;;;61.50;;
32198;SDS011;73953;42.656;21.156;2023-12-20T10:45:35;104.80;;;61.22;;
32198;SDS011;73953;42.656;21.156;2023-12-20T10:48:03;94.25;;;56.03;;
32198;SDS011;73953;42.656;21.156;2023-12-20T10:50:31;110.68;;;63.65;;
32198;SDS011;73953;42.656;21.156;2023-12-20T10:52:58;110.88;;;62.03;;
32198;SDS011;73953;42.656;21.156;2023-12-20T10:55:27;96.53;;;59.00;;
32198;SDS011;73953;42.656;21.156;2023-12-20T10:57:56;101.57;;;58.45;;
32198;SDS011;73953;42.656;21.156;2023-12-20T11:00:28;107.07;;;57.67;;
32198;SDS011;73953;42.656;21.156;2023-12-20T11:02:55;101.80;;;58.38;;
32198;SDS011;73953;42.656;21.156;2023-12-20T11:05:31;171.10;;;98.07;;
32198;SDS011;73953;42.656;21.156;2023-12-20T11:08:02;100.47;;;57.33;;
32198;SDS011;73953;42.656;21.156;2023-12-20T11:10:31;119.13;;;62.72;;
32198;SDS011;73953;42.656;21.156;2023-12-20T11:15:30;72.22;;;43.33;;
32198;SDS011;73953;42.656;21.156;2023-12-20T11:17:58;90.60;;;50.17;;
32198;SDS011;73953;42.656;21.156;2023-12-20T11:20:39;210.43;;;83.45;;
32198;SDS011;73953;42.656;21.156;2023-12-20T11:23:06;144.57;;;63.03;;
32198;SDS011;73953;42.656;21.156;2023-12-20T11:25:47;74.40;;;40.90;;
32198;SDS011;73953;42.656;21.156;2023-12-20T11:28:14;70.35;;;40.28;;
32198;SDS011;73953;42.656;21.156;2023-12-20T11:30:42;179.52;;;94.90;;
32198;SDS011;73953;42.656;21.156;2023-12-20T11:33:13;100.10;;;59.65;;
32198;SDS011;73953;42.656;21.156;2023-12-20T11:35:40;86.47;;;53.85;;
32198;SDS011;73953;42.656;21.156;2023-12-20T11:38:08;81.63;;;46.97;;
32198;SDS011;73953;42.656;21.156;2023-12-20T11:40:39;84.85;;;45.00;;
32198;SDS011;73953;42.656;21.156;2023-12-20T11:43:07;83.45;;;46.20;;
32198;SDS011;73953;42.656;21.156;2023-12-20T11:45:35;61.03;;;36.40;;
32198;SDS011;73953;42.656;21.156;2023-12-20T11:48:02;61.72;;;35.30;;
32198;SDS011;73953;42.656;21.156;2023-12-20T11:50:29;67.93;;;37.78;;
32198;SDS011;73953;42.656;21.156;2023-12-20T11:52:57;84.32;;;45.17;;
32198;SDS011;73953;42.656;21.156;2023-12-20T11:55:24;73.25;;;43.15;;
32198;SDS011;73953;42.656;21.156;2023-12-20T11:57:52;76.97;;;46.67;;
32198;SDS011;73953;42.656;21.156;2023-12-20T12:00:19;72.18;;;41.08;;
32198;SDS011;73953;42.656;21.156;2023-12-20T12:02:59;77.88;;;47.35;;
32198;SDS011;73953;42.656;21.156;2023-12-20T12:05:26;67.80;;;41.63;;
32198;SDS011;73953;42.656;21.156;2023-12-20T12:07:53;79.07;;;44.45;;
32198;SDS011;73953;42.656;21.156;2023-12-20T12:10:21;76.05;;;42.60;;
32198;SDS011;73953;42.656;21.156;2023-12-20T12:12:48;82.95;;;42.53;;
32198;SDS011;73953;42.656;21.156;2023-12-20T12:15:15;78.80;;;44.95;;
32198;SDS011;73953;42.656;21.156;2023-12-20T12:17:42;71.78;;;42.92;;
32198;SDS011;73953;42.656;21.156;2023-12-20T12:20:09;76.03;;;45.10;;
32198;SDS011;73953;42.656;21.156;2023-12-20T12:22:37;77.25;;;44.28;;
32198;SDS011;73953;42.656;21.156;2023-12-20T12:25:10;78.10;;;46.13;;
32198;SDS011;73953;42.656;21.156;2023-12-20T12:27:41;68.85;;;39.00;;
32198;SDS011;73953;42.656;21.156;2023-12-20T12:30:09;75.72;;;43.42;;
32198;SDS011;73953;42.656;21.156;2023-12-20T12:32:36;74.35;;;42.13;;
32198;SDS011;73953;42.656;21.156;2023-12-20T12:35:04;64.72;;;37.75;;
32198;SDS011;73953;42.656;21.156;2023-12-20T12:37:34;66.32;;;37.17;;
32198;SDS011;73953;42.656;21.156;2023-12-20T12:40:01;71.82;;;38.15;;
32198;SDS011;73953;42.656;21.156;2023-12-20T12:42:28;70.10;;;38.15;;
32198;SDS011;73953;42.656;21.156;2023-12-20T12:44:55;71.50;;;39.83;;
32198;SDS011;73953;42.656;21.156;2023-12-20T12:47:23;91.18;;;47.72;;
32198;SDS011;73953;42.656;21.156;2023-12-20T12:49:51;78.53;;;46.65;;
32198;SDS011;73953;42.656;21.156;2023-12-20T12:52:18;74.60;;;40.67;;
32198;SDS011;73953;42.656;21.156;2023-12-20T12:54:45;67.93;;;39.97;;
32198;SDS011;73953;42.656;21.156;2023-12-20T12:57:13;77.32;;;45.33;;
32198;SDS011;73953;42.656;21.156;2023-12-20T12:59:41;85.07;;;46.47;;
32198;SDS011;73953;42.656;21.156;2023-12-20T13:02:08;70.18;;;43.15;;
32198;SDS011;73953;42.656;21.156;2023-12-20T13:04:35;76.13;;;42.17;;
32198;SDS011;73953;42.656;21.156;2023-12-20T13:07:02;72.95;;;39.60;;
32198;SDS011;73953;42.656;21.156;2023-12-20T13:09:29;87.97;;;53.42;;
32198;SDS011;73953;42.656;21.156;2023-12-20T13:11:56;93.88;;;52.78;;
32198;SDS011;73953;42.656;21.156;2023-12-20T13:14:24;71.97;;;42.55;;
32198;SDS011;73953;42.656;21.156;2023-12-20T13:16:51;67.70;;;40.28;;
32198;SDS011;73953;42.656;21.156;2023-12-20T13:19:18;83.68;;;43.78;;
32198;SDS011;73953;42.656;21.156;2023-12-20T13:21:45;83.60;;;45.35;;
32198;SDS011;73953;42.656;21.156;2023-12-20T13:24:12;87.63;;;46.20;;
32198;SDS011;73953;42.656;21.156;2023-12-20T13:26:39;99.57;;;48.67;;
32198;SDS011;73953;42.656;21.156;2023-12-20T13:29:06;80.53;;;43.50;;
32198;SDS011;73953;42.656;21.156;2023-12-20T13:31:33;92.95;;;50.58;;
32198;SDS011;73953;42.656;21.156;2023-12-20T13:34:03;75.75;;;44.65;;
32198;SDS011;73953;42.656;21.156;2023-12-20T13:36:31;77.28;;;42.90;;
32198;SDS011;73953;42.656;21.156;2023-12-20T13:38:59;79.43;;;42.72;;
32198;SDS011;73953;42.656;21.156;2023-12-20T13:41:27;79.07;;;43.83;;
32198;SDS011;73953;42.656;21.156;2023-12-20T13:43:54;95.43;;;46.03;;
32198;SDS011;73953;42.656;21.156;2023-12-20T13:46:20;81.80;;;45.92;;
32198;SDS011;73953;42.656;21.156;2023-12-20T13:48:48;77.28;;;41.33;;
32198;SDS011;73953;42.656;21.156;2023-12-20T13:51:16;79.38;;;40.80;;
32198;SDS011;73953;42.656;21.156;2023-12-20T13:53:46;87.35;;;44.03;;
32198;SDS011;73953;42.656;21.156;2023-12-20T13:56:15;85.90;;;46.33;;
32198;SDS011;73953;42.656;21.156;2023-12-20T13:58:42;81.40;;;44.10;;
32198;SDS011;73953;42.656;21.156;2023-12-20T14:01:09;78.32;;;44.65;;